Joseph Merrick Jones — WDF4882 — position and weather

sailwx.info

Track history (hours):
 
Tides and Currents Weather Stations Pressure Air Temp Water Temp Dewpoint Dewpoint Depression Visibility Wind Speed Wind Dir Waves Ship Positions

Joseph Merrick Jones

Owner: Canal Barge Company, Inc., Belle Chasse, LA. More information available from US FCC via Universal Licensing System and Coast Guard Vessel Documentation Center.

Last reported at 2018-Apr-21 15:57 UTC. Time now 2018-Apr-22 02:44 UTC.
Position N 31°59' W 091°10'.

Length 39 m; draft 3 m.

Type: Towing. MMSI: 367456840.

Date/timePositionNaut miles runAvg speedWind from/ knotsBaromVisibWave heightAir tempDewpointWater temp
2018-Apr-21 15:57N 31°59' W 091°10'4 9.2
2018-Apr-21 15:30N 31°60' W 091°06'5 8.9
2018-Apr-21 14:58N 32°04' W 091°04'4 9.0
2018-Apr-21 14:30N 32°08' W 091°06'4 9.0
2018-Apr-21 14:00N 32°07' W 091°01'510.0
2018-Apr-21 13:30N 32°12' W 090°59'5 9.5
2018-Apr-21 13:00N 32°17' W 090°57'4 8.8
2018-Apr-21 12:30N 32°21' W 090°55'2 4.2
2018-Apr-21 12:00N 32°21' W 090°57'0 0.1
2018-Apr-21 11:29N 32°21' W 090°57'0 0.0
2018-Apr-21 11:00N 32°21' W 090°57'0 0.0
2018-Apr-21 10:30N 32°21' W 090°57'0 0.0
2018-Apr-21 10:00N 32°21' W 090°57'0 0.0
2018-Apr-21 09:30N 32°21' W 090°57'0 0.0
2018-Apr-21 09:00N 32°21' W 090°57'0 0.0
2018-Apr-21 08:30N 32°21' W 090°57'0 0.1
2018-Apr-21 08:00N 32°21' W 090°57'0 0.2
2018-Apr-21 07:30N 32°21' W 090°57'1 1.9
2018-Apr-21 07:00N 32°21' W 090°58'4 7.4
2018-Apr-21 06:30N 32°24' W 090°60'4 9.1
2018-Apr-21 06:00N 32°27' W 091°04'7 8.6
2018-Apr-21 05:12N 32°33' W 091°06'2 9.4
2018-Apr-21 05:00N 32°35' W 091°07'5 7.9
2018-Apr-21 04:22N 32°40' W 091°08'5 8.5
2018-Apr-21 03:45N 32°44' W 091°04'  
2018-Apr-18 03:45N 38°35' W 090°12'2 8.5
2018-Apr-18 03:30N 38°37' W 090°11'4 7.9
2018-Apr-18 03:00N 38°41' W 090°11'1 2.3
2018-Apr-18 02:30N 38°42' W 090°11'1 3.1
2018-Apr-18 02:00N 38°44' W 090°10'1 2.9
2018-Apr-18 01:30N 38°45' W 090°09'0 0.3
2018-Apr-18 01:00N 38°45' W 090°09'0 0.1
2018-Apr-18 00:30N 38°45' W 090°09'0 0.1
2018-Apr-18 00:00N 38°45' W 090°09'1 1.0
2018-Apr-17 23:28N 38°45' W 090°09'2 4.6
2018-Apr-17 23:00N 38°47' W 090°07'3 7.0
2018-Apr-17 22:30N 38°51' W 090°07'2 4.9
2018-Apr-17 22:00N 38°52' W 090°09'0 0.8
2018-Apr-17 21:30N 38°52' W 090°10'3 5.9
2018-Apr-17 21:00N 38°54' W 090°13'3 6.4
2018-Apr-17 20:30N 38°55' W 090°16'3 6.4
2018-Apr-17 20:00N 38°56' W 090°20'3 6.4
2018-Apr-17 19:30N 38°58' W 090°24'3 6.4
2018-Apr-17 19:00N 38°58' W 090°28'3 5.7
2018-Apr-17 18:30N 38°57' W 090°32'3 6.4
2018-Apr-17 18:00N 38°60' W 090°34'3 6.2
2018-Apr-17 17:30N 39°03' W 090°35'3 5.6
2018-Apr-17 17:00N 39°05' W 090°36'3 6.3
2018-Apr-17 16:30N 39°09' W 090°37'7 0.4
2018-Apr-16 19:36N 39°16' W 090°37'3 3.6
2018-Apr-16 18:39N 39°13' W 090°36'1 3.9
2018-Apr-16 18:30N 39°12' W 090°35'2 3.5
2018-Apr-16 18:00N 39°10' W 090°36'2 4.1
2018-Apr-16 17:30N 39°08' W 090°37'1 2.4
2018-Apr-16 17:00N 39°07' W 090°36'0 0.0
2018-Apr-16 16:23N 39°07' W 090°36'0 0.0
2018-Apr-16 16:00N 39°07' W 090°36'0 0.0
2018-Apr-16 15:28N 39°07' W 090°36'1 2.6
2018-Apr-16 15:00N 39°06' W 090°36'1 1.0
2018-Apr-16 14:30N 39°06' W 090°36'1 2.1
2018-Apr-16 14:00N 39°05' W 090°35'1 3.0
2018-Apr-16 13:30N 39°03' W 090°35'2 3.2
2018-Apr-16 13:00N 39°02' W 090°34'2 3.6
2018-Apr-16 12:30N 38°60' W 090°34'2 3.7
2018-Apr-16 12:00N 38°58' W 090°33'2 3.8
2018-Apr-16 11:30N 38°57' W 090°31'2 4.2
2018-Apr-16 11:00N 38°58' W 090°29'2 4.2
2018-Apr-16 10:30N 38°58' W 090°26'2 4.3
2018-Apr-16 10:00N 38°58' W 090°23'2 4.4
2018-Apr-16 09:30N 38°56' W 090°21'2 4.4
2018-Apr-16 09:00N 38°55' W 090°18'2 4.5
2018-Apr-16 08:30N 38°55' W 090°15'2 4.4
2018-Apr-16 08:00N 38°54' W 090°13'2 4.8
2018-Apr-16 07:30N 38°53' W 090°10'1 2.7
2018-Apr-16 07:00N 38°52' W 090°09'1 2.4
2018-Apr-16 06:30N 38°51' W 090°08'2 4.3
2018-Apr-16 06:00N 38°50' W 090°07'3 5.4
2018-Apr-16 05:30N 38°47' W 090°08'3 5.5
2018-Apr-16 05:00N 38°44' W 090°09'3 5.1
2018-Apr-16 04:29N 38°42' W 090°11'0 0.8
2018-Apr-16 04:00N 38°42' W 090°11'2 3.1
2018-Apr-16 03:30N 38°40' W 090°11'2 0.4
2018-Apr-15 21:58N 38°38' W 090°11'  
Track history (hours):
 
Tides and Currents Weather Stations Pressure Air Temp Water Temp Dewpoint Dewpoint Depression Visibility Wind Speed Wind Dir Waves Ship Positions

Joseph Merrick Jones

Owner: Canal Barge Company, Inc., Belle Chasse, LA. More information available from US FCC via Universal Licensing System and Coast Guard Vessel Documentation Center.

Last reported at 2018-Apr-21 15:57 UTC. Time now 2018-Apr-22 02:44 UTC.
Position N 31°59' W 091°10'.

Length 39 m; draft 3 m.

Type: Towing. MMSI: 367456840.

Date/timePositionNaut miles runAvg speedWind from/ knotsBaromVisibWave heightAir tempDewpointWater temp
2018-Apr-21 15:57N 31°59' W 091°10'4 9.2
2018-Apr-21 15:30N 31°60' W 091°06'5 8.9
2018-Apr-21 14:58N 32°04' W 091°04'4 9.0
2018-Apr-21 14:30N 32°08' W 091°06'4 9.0
2018-Apr-21 14:00N 32°07' W 091°01'510.0
2018-Apr-21 13:30N 32°12' W 090°59'5 9.5
2018-Apr-21 13:00N 32°17' W 090°57'4 8.8
2018-Apr-21 12:30N 32°21' W 090°55'2 4.2
2018-Apr-21 12:00N 32°21' W 090°57'0 0.1
2018-Apr-21 11:29N 32°21' W 090°57'0 0.0
2018-Apr-21 11:00N 32°21' W 090°57'0 0.0
2018-Apr-21 10:30N 32°21' W 090°57'0 0.0
2018-Apr-21 10:00N 32°21' W 090°57'0 0.0
2018-Apr-21 09:30N 32°21' W 090°57'0 0.0
2018-Apr-21 09:00N 32°21' W 090°57'0 0.0
2018-Apr-21 08:30N 32°21' W 090°57'0 0.1
2018-Apr-21 08:00N 32°21' W 090°57'0 0.2
2018-Apr-21 07:30N 32°21' W 090°57'1 1.9
2018-Apr-21 07:00N 32°21' W 090°58'4 7.4
2018-Apr-21 06:30N 32°24' W 090°60'4 9.1
2018-Apr-21 06:00N 32°27' W 091°04'7 8.6
2018-Apr-21 05:12N 32°33' W 091°06'2 9.4
2018-Apr-21 05:00N 32°35' W 091°07'5 7.9
2018-Apr-21 04:22N 32°40' W 091°08'5 8.5
2018-Apr-21 03:45N 32°44' W 091°04'  
2018-Apr-18 03:45N 38°35' W 090°12'2 8.5
2018-Apr-18 03:30N 38°37' W 090°11'4 7.9
2018-Apr-18 03:00N 38°41' W 090°11'1 2.3
2018-Apr-18 02:30N 38°42' W 090°11'1 3.1
2018-Apr-18 02:00N 38°44' W 090°10'1 2.9
2018-Apr-18 01:30N 38°45' W 090°09'0 0.3
2018-Apr-18 01:00N 38°45' W 090°09'0 0.1
2018-Apr-18 00:30N 38°45' W 090°09'0 0.1
2018-Apr-18 00:00N 38°45' W 090°09'1 1.0
2018-Apr-17 23:28N 38°45' W 090°09'2 4.6
2018-Apr-17 23:00N 38°47' W 090°07'3 7.0
2018-Apr-17 22:30N 38°51' W 090°07'2 4.9
2018-Apr-17 22:00N 38°52' W 090°09'0 0.8
2018-Apr-17 21:30N 38°52' W 090°10'3 5.9
2018-Apr-17 21:00N 38°54' W 090°13'3 6.4
2018-Apr-17 20:30N 38°55' W 090°16'3 6.4
2018-Apr-17 20:00N 38°56' W 090°20'3 6.4
2018-Apr-17 19:30N 38°58' W 090°24'3 6.4
2018-Apr-17 19:00N 38°58' W 090°28'3 5.7
2018-Apr-17 18:30N 38°57' W 090°32'3 6.4
2018-Apr-17 18:00N 38°60' W 090°34'3 6.2
2018-Apr-17 17:30N 39°03' W 090°35'3 5.6
2018-Apr-17 17:00N 39°05' W 090°36'3 6.3
2018-Apr-17 16:30N 39°09' W 090°37'7 0.4
2018-Apr-16 19:36N 39°16' W 090°37'3 3.6
2018-Apr-16 18:39N 39°13' W 090°36'1 3.9
2018-Apr-16 18:30N 39°12' W 090°35'2 3.5
2018-Apr-16 18:00N 39°10' W 090°36'2 4.1
2018-Apr-16 17:30N 39°08' W 090°37'1 2.4
2018-Apr-16 17:00N 39°07' W 090°36'0 0.0
2018-Apr-16 16:23N 39°07' W 090°36'0 0.0
2018-Apr-16 16:00N 39°07' W 090°36'0 0.0
2018-Apr-16 15:28N 39°07' W 090°36'1 2.6
2018-Apr-16 15:00N 39°06' W 090°36'1 1.0
2018-Apr-16 14:30N 39°06' W 090°36'1 2.1
2018-Apr-16 14:00N 39°05' W 090°35'1 3.0
2018-Apr-16 13:30N 39°03' W 090°35'2 3.2
2018-Apr-16 13:00N 39°02' W 090°34'2 3.6
2018-Apr-16 12:30N 38°60' W 090°34'2 3.7
2018-Apr-16 12:00N 38°58' W 090°33'2 3.8
2018-Apr-16 11:30N 38°57' W 090°31'2 4.2
2018-Apr-16 11:00N 38°58' W 090°29'2 4.2
2018-Apr-16 10:30N 38°58' W 090°26'2 4.3
2018-Apr-16 10:00N 38°58' W 090°23'2 4.4
2018-Apr-16 09:30N 38°56' W 090°21'2 4.4
2018-Apr-16 09:00N 38°55' W 090°18'2 4.5
2018-Apr-16 08:30N 38°55' W 090°15'2 4.4
2018-Apr-16 08:00N 38°54' W 090°13'2 4.8
2018-Apr-16 07:30N 38°53' W 090°10'1 2.7
2018-Apr-16 07:00N 38°52' W 090°09'1 2.4
2018-Apr-16 06:30N 38°51' W 090°08'2 4.3
2018-Apr-16 06:00N 38°50' W 090°07'3 5.4
2018-Apr-16 05:30N 38°47' W 090°08'3 5.5
2018-Apr-16 05:00N 38°44' W 090°09'3 5.1
2018-Apr-16 04:29N 38°42' W 090°11'0 0.8
2018-Apr-16 04:00N 38°42' W 090°11'2 3.1
2018-Apr-16 03:30N 38°40' W 090°11'2 0.4
2018-Apr-15 21:58N 38°38' W 090°11'  

Dump ship's entire track history